Trowbridge, United Kingdom
Current Conditions -  °F | °C
As of 10:20 PM on Friday 31 Oct 2014 (Local Time) from EGGD Reporting Station
Broken Clouds Broken Clouds  
Wind Chill: 61°   Ceiling: 1100
Heat Index: 61°   Visibility: 6mi
Dew Point: 57°   Wind: 16mph
Humidity: 88%   Direction: 190°S
Pressure: 29.88"   Gusts: NA
Location:  51.32°N, 2.21°W
Report Text: EGGD 312220Z 19014KT 160V220 9999 BKN011 16/14 Q1012
Loading
Personal Weather Stations






























Interactive Weather Map
Tropical Storm Tracking
New forecast layout! Learn more

10-Day Weather Forecast

Advertisements
Track Severe Weather on mobile